Time;durP1;ratioP1;P1;durP2;ratioP2;P2;SDS_P1;SDS_P2;PMS_P1;PMS_P2;Temp;Humidity;BMP_temperature;BMP_pressure;BME280_temperature;BME280_humidity;BME280_pressure;Samples;Min_cycle;Max_cycle;Signal;HPM_P1;HPM_P2
2023/09/24 00:04:11;;;;;;;28.63;17.88;;;;;;;7.01;100.00;102045.41;10441004;28;20040;-82
2023/09/24 00:09:14;;;;;;;41.00;20.10;;;;;;;6.95;100.00;102042.28;10439377;28;20037;-82
2023/09/24 00:14:14;;;;;;;37.42;20.98;;;;;;;6.92;100.00;102044.66;10442857;28;20041;-82
2023/09/24 00:19:16;;;;;;;32.45;19.20;;;;;;;6.85;100.00;102051.06;10440263;28;20506;-82
2023/09/24 00:24:17;;;;;;;36.67;20.55;;;;;;;6.83;100.00;102044.81;10441435;28;20450;-82
2023/09/24 00:29:17;;;;;;;32.58;18.88;;;;;;;6.81;100.00;102049.00;10405225;28;20041;-81
2023/09/24 00:34:18;;;;;;;32.42;20.45;;;;;;;6.79;100.00;102049.63;10439831;28;20029;-81
2023/09/24 00:39:18;;;;;;;47.58;21.42;;;;;;;6.74;100.00;102054.47;10436679;28;20061;-81
2023/09/24 00:44:19;;;;;;;38.03;22.05;;;;;;;6.74;100.00;102057.09;10440659;28;20037;-81
2023/09/24 00:49:19;;;;;;;37.72;21.52;;;;;;;6.77;100.00;102067.75;10439207;28;20469;-81
2023/09/24 00:54:21;;;;;;;41.40;21.83;;;;;;;6.72;100.00;102064.75;10441327;28;20132;-81
2023/09/24 00:59:21;;;;;;;41.40;22.80;;;;;;;6.78;100.00;102066.03;10439742;28;20040;-81
2023/09/24 01:04:22;;;;;;;40.25;21.58;;;;;;;6.75;100.00;102067.59;10437745;28;20120;-82
2023/09/24 01:09:22;;;;;;;47.33;21.25;;;;;;;6.72;100.00;102069.94;10438867;28;20045;-81
2023/09/24 01:14:23;;;;;;;31.45;18.98;;;;;;;6.65;100.00;102066.72;10412958;28;20045;-81
2023/09/24 01:19:25;;;;;;;36.70;19.70;;;;;;;6.61;100.00;102053.47;10438514;28;20036;-81
2023/09/24 01:24:27;;;;;;;37.83;19.57;;;;;;;6.69;100.00;102066.19;10414232;28;20053;-81
2023/09/24 01:29:27;;;;;;;38.20;21.55;;;;;;;6.61;100.00;102063.88;10438456;28;20051;-81
2023/09/24 01:34:28;;;;;;;37.33;22.70;;;;;;;6.56;100.00;102059.06;10439554;28;20068;-81
2023/09/24 01:39:31;;;;;;;40.63;22.98;;;;;;;6.50;100.00;102071.56;10422097;28;20137;-80
2023/09/24 01:44:32;;;;;;;37.80;20.73;;;;;;;6.53;100.00;102082.22;10431511;28;20397;-81
2023/09/24 01:49:33;;;;;;;30.93;23.07;;;;;;;6.44;100.00;102082.38;10447872;28;20045;-81
2023/09/24 01:54:33;;;;;;;29.38;20.02;;;;;;;6.53;100.00;102084.81;10444856;28;20099;-81
2023/09/24 01:59:34;;;;;;;31.45;20.58;;;;;;;6.47;100.00;102082.63;10445143;28;20039;-81
2023/09/24 02:04:37;;;;;;;38.40;24.00;;;;;;;6.36;100.00;102083.41;10479750;28;20404;-81
2023/09/24 02:09:37;;;;;;;44.33;26.98;;;;;;;6.27;100.00;102073.13;10430285;28;20052;-81
2023/09/24 02:14:39;;;;;;;39.42;23.70;;;;;;;6.26;100.00;102076.50;10429998;28;20381;-81
2023/09/24 02:19:41;;;;;;;40.83;23.83;;;;;;;6.20;100.00;102078.59;10446839;28;20041;-80
2023/09/24 02:24:42;;;;;;;44.25;24.23;;;;;;;6.16;100.00;102080.94;10387702;28;20040;-81
2023/09/24 02:29:43;;;;;;;53.63;23.35;;;;;;;6.21;100.00;102080.41;10403714;28;20484;-81
2023/09/24 02:34:44;;;;;;;52.58;25.98;;;;;;;6.07;100.00;102093.16;10404034;28;20033;-81
2023/09/24 02:39:45;;;;;;;40.70;24.37;;;;;;;5.98;100.00;102098.44;10405087;28;20037;-81
2023/09/24 02:44:45;;;;;;;35.80;20.73;;;;;;;5.93;100.00;102093.63;10404028;28;20124;-80
2023/09/24 02:49:46;;;;;;;41.55;23.30;;;;;;;5.95;100.00;102105.97;10405300;28;20041;-81
2023/09/24 02:54:48;;;;;;;38.83;25.52;;;;;;;5.96;100.00;102106.88;10399984;28;20045;-82
2023/09/24 02:59:48;;;;;;;43.95;23.98;;;;;;;5.95;100.00;102111.16;10386874;28;20041;-82
2023/09/24 03:04:50;;;;;;;37.30;21.73;;;;;;;5.91;100.00;102121.16;10401462;28;20068;-82
2023/09/24 03:09:53;;;;;;;57.83;26.17;;;;;;;5.93;100.00;102132.59;10373446;28;20404;-82
2023/09/24 03:14:53;;;;;;;39.70;26.05;;;;;;;5.90;100.00;102132.31;10403522;28;20033;-82
2023/09/24 03:19:54;;;;;;;37.47;23.38;;;;;;;5.84;100.00;102131.00;10403873;28;20519;-82
2023/09/24 03:24:54;;;;;;;40.22;22.88;;;;;;;5.84;100.00;102133.63;10400374;28;20107;-82
2023/09/24 03:29:55;;;;;;;43.97;23.27;;;;;;;5.75;100.00;102135.41;10402206;28;20057;-82
2023/09/24 03:34:55;;;;;;;41.25;24.10;;;;;;;5.63;100.00;102142.13;10433765;28;20098;-81
2023/09/24 03:39:56;;;;;;;45.85;22.98;;;;;;;5.66;100.00;102151.13;10444664;28;20485;-81
2023/09/24 03:44:56;;;;;;;44.65;23.80;;;;;;;5.83;100.00;102154.28;10441870;28;20045;-81
2023/09/24 03:49:57;;;;;;;43.05;22.88;;;;;;;5.76;100.00;102145.03;10441576;28;20503;-80
2023/09/24 03:54:59;;;;;;;38.40;23.98;;;;;;;5.62;100.00;102151.63;10439695;28;20072;-81
2023/09/24 03:59:59;;;;;;;;;;;;;;;5.60;100.00;102155.78;10443463;28;20039;-81
2023/09/24 04:05:00;;;;;;;41.42;24.15;;;;;;;5.59;100.00;102160.03;10441409;28;19925;-81
2023/09/24 04:10:00;;;;;;;41.25;22.90;;;;;;;5.65;100.00;102166.56;10441623;28;20199;-81
2023/09/24 04:15:02;;;;;;;38.70;24.95;;;;;;;5.62;100.00;102164.59;10424198;28;20107;-81
2023/09/24 04:20:03;;;;;;;42.10;24.17;;;;;;;5.62;100.00;102174.06;10425031;28;20048;-80
2023/09/24 04:25:04;;;;;;;44.60;25.50;;;;;;;5.58;100.00;102172.91;10439142;28;20037;-80
2023/09/24 04:30:13;;;;;;;56.05;24.77;;;;;;;5.49;100.00;102172.09;10406774;28;20500;-81
2023/09/24 04:35:14;;;;;;;46.00;23.45;;;;;;;5.53;100.00;102175.06;10439914;28;20037;-80
2023/09/24 04:40:15;;;;;;;38.90;22.88;;;;;;;5.44;100.00;102179.44;10434723;28;20056;-79
2023/09/24 04:45:17;;;;;;;43.42;23.17;;;;;;;5.36;100.00;102172.66;10436272;28;20051;-81
2023/09/24 04:50:18;;;;;;;39.83;23.73;;;;;;;5.33;100.00;102190.56;10429524;28;20115;-81
2023/09/24 04:55:19;;;;;;;37.87;22.50;;;;;;;5.27;100.00;102186.63;10421479;28;20048;-80
2023/09/24 05:00:21;;;;;;;48.65;23.67;;;;;;;5.40;100.00;102186.06;10438089;28;20832;-80
2023/09/24 05:05:22;;;;;;;45.90;23.35;;;;;;;5.39;100.00;102189.44;10433975;28;20468;-80
2023/09/24 05:10:23;;;;;;;35.13;21.98;;;;;;;5.31;100.00;102195.63;10437120;28;20036;-80
2023/09/24 05:15:24;;;;;;;36.38;23.85;;;;;;;5.28;100.00;102203.13;10420849;28;20065;-81
2023/09/24 05:20:24;;;;;;;35.15;23.40;;;;;;;5.31;100.00;102208.59;10435027;28;20041;-80
2023/09/24 05:25:25;;;;;;;36.08;22.60;;;;;;;5.36;100.00;102217.72;10433060;28;20029;-80
2023/09/24 05:30:26;;;;;;;35.70;21.05;;;;;;;5.42;100.00;102222.53;10418430;28;20048;-80
2023/09/24 05:35:26;;;;;;;38.13;26.08;;;;;;;5.51;100.00;102220.78;10418726;28;20040;-81
2023/09/24 05:40:27;;;;;;;51.50;23.98;;;;;;;5.62;100.00;102229.53;10434922;28;20430;-80
2023/09/24 05:45:28;;;;;;;38.97;23.17;;;;;;;5.63;100.00;102235.63;10417105;28;20111;-79
2023/09/24 05:50:30;;;;;;;34.00;20.00;;;;;;;5.62;100.00;102236.41;10436222;28;20477;-79
2023/09/24 05:55:31;;;;;;;32.70;21.05;;;;;;;5.68;100.00;102247.34;10438044;28;20743;-79
2023/09/24 06:00:38;;;;;;;38.08;20.10;;;;;;;5.78;100.00;102242.19;10434150;28;20041;-79
2023/09/24 06:05:39;;;;;;;32.42;20.60;;;;;;;5.90;100.00;102238.88;10429228;28;20041;-80
2023/09/24 06:10:44;;;;;;;35.72;20.83;;;;;;;6.08;100.00;102245.72;10435135;28;20040;-80
2023/09/24 06:15:45;;;;;;;27.48;18.52;;;;;;;6.22;100.00;102253.81;10431668;28;20047;-80
2023/09/24 06:20:45;;;;;;;35.72;19.92;;;;;;;6.35;100.00;102248.91;10434456;28;20415;-79
2023/09/24 06:25:47;;;;;;;31.55;19.88;;;;;;;6.55;100.00;102258.47;10433992;28;20120;-81
2023/09/24 06:30:47;;;;;;;31.40;17.33;;;;;;;6.78;100.00;102253.38;10418610;28;20083;-80
2023/09/24 06:35:48;;;;;;;28.52;16.30;;;;;;;7.24;100.00;102241.66;10441913;28;20094;-81
2023/09/24 06:41:06;;;;;;;26.63;17.05;;;;;;;7.78;100.00;102247.75;10444148;28;20044;-80
2023/09/24 06:46:07;;;;;;;25.35;15.18;;;;;;;9.44;100.00;102242.28;10438808;28;20399;-81
2023/09/24 06:51:09;;;;;;;12.95;9.20;;;;;;;10.74;100.00;102237.53;10441967;28;20045;-82
2023/09/24 06:56:09;;;;;;;7.53;5.15;;;;;;;11.48;100.00;102243.31;10423683;28;20378;-80
2023/09/24 07:01:10;;;;;;;7.65;3.83;;;;;;;11.50;100.00;102254.81;10442693;28;20061;-81
2023/09/24 07:06:10;;;;;;;10.45;3.70;;;;;;;11.38;100.00;102247.94;10443310;28;20068;-85
2023/09/24 07:11:20;;;;;;;9.40;3.72;;;;;;;12.01;100.00;102247.66;10441738;28;20053;-85
2023/09/24 07:16:25;;;;;;;10.48;3.38;;;;;;;12.24;100.00;102232.44;10443151;28;20053;-85
2023/09/24 07:21:30;;;;;;;8.07;3.25;;;;;;;13.10;100.00;102207.84;10438741;28;20420;-80
2023/09/24 07:26:30;;;;;;;5.70;3.25;;;;;;;14.36;100.00;102183.28;10423991;28;20076;-79
2023/09/24 07:31:32;;;;;;;6.47;2.42;;;;;;;15.79;100.00;102117.38;10439459;28;20431;-79
2023/09/24 07:36:32;;;;;;;5.78;2.42;;;;;;;16.10;100.00;102213.00;10440235;28;20049;-80
2023/09/24 07:41:33;;;;;;;3.75;1.85;;;;;;;16.75;100.00;102210.59;10436698;28;20492;-79
2023/09/24 07:46:35;;;;;;;4.93;2.30;;;;;;;17.80;100.00;102224.63;10442611;28;20441;-78
2023/09/24 07:51:35;;;;;;;7.90;2.63;;;;;;;17.77;100.00;102227.16;10440485;28;20127;-79
2023/09/24 07:56:41;;;;;;;2.97;1.80;;;;;;;16.23;100.00;102198.59;10442284;28;20055;-79
2023/09/24 08:01:41;;;;;;;4.18;1.95;;;;;;;14.96;100.00;102190.78;10441240;28;20507;-79
2023/09/24 08:06:42;;;;;;;4.45;2.53;;;;;;;13.97;100.00;102162.78;10439274;28;20047;-80
2023/09/24 08:11:43;;;;;;;5.97;2.63;;;;;;;13.73;100.00;102176.38;10436964;28;20128;-79
2023/09/24 08:16:44;;;;;;;4.82;3.08;;;;;;;13.64;100.00;102175.88;10438827;28;20047;-79
2023/09/24 08:21:45;;;;;;;4.60;1.83;;;;;;;13.57;100.00;102186.88;10430861;28;20041;-81
2023/09/24 08:26:45;;;;;;;7.97;2.78;;;;;;;13.63;100.00;102187.22;10434021;28;20473;-80
2023/09/24 08:31:48;;;;;;;6.47;2.53;;;;;;;13.81;100.00;102197.88;10430434;28;20045;-80
2023/09/24 08:36:50;;;;;;;4.68;2.35;;;;;;;14.01;100.00;102203.34;10433835;28;20055;-79
2023/09/24 08:41:50;;;;;;;7.75;2.38;;;;;;;14.13;100.00;102197.81;10431428;28;20041;-78
2023/09/24 08:46:51;;;;;;;12.20;2.20;;;;;;;14.44;100.00;102202.09;10400689;28;20037;-78
2023/09/24 08:51:51;;;;;;;5.57;1.63;;;;;;;14.75;100.00;102209.00;10399602;28;20047;-83
2023/09/24 08:56:52;;;;;;;8.82;2.70;;;;;;;14.90;100.00;102212.44;10431283;28;20048;-80
2023/09/24 09:01:53;;;;;;;5.35;1.83;;;;;;;15.06;100.00;102207.94;10424182;28;20041;-82
2023/09/24 09:06:55;;;;;;;5.85;2.50;;;;;;;15.56;100.00;102220.13;10426747;28;20488;-80
2023/09/24 09:11:55;;;;;;;6.57;1.92;;;;;;;15.57;100.00;102218.41;10437876;28;20037;-81
2023/09/24 09:16:57;;;;;;;4.97;2.08;;;;;;;15.86;100.00;102218.91;10439102;28;20090;-81
2023/09/24 09:22:15;;;;;;;4.60;1.90;;;;;;;16.62;100.00;102218.81;10423954;28;20098;-80
2023/09/24 09:27:16;;;;;;;3.35;1.15;;;;;;;17.34;100.00;102209.53;10419814;28;20036;-82
2023/09/24 09:32:16;;;;;;;6.40;1.67;;;;;;;18.12;100.00;102240.91;10426873;28;20037;-82
2023/09/24 09:37:17;;;;;;;4.90;2.90;;;;;;;20.31;100.00;102255.38;10441233;28;20041;-83
2023/09/24 09:42:20;;;;;;;4.77;1.40;;;;;;;22.68;100.00;102301.25;10439520;28;20143;-82
2023/09/24 09:47:21;;;;;;;5.25;1.50;;;;;;;23.58;100.00;102332.28;10434608;28;20132;-82
2023/09/24 09:52:23;;;;;;;3.20;1.27;;;;;;;25.05;100.00;102322.72;10470911;28;20044;-83
2023/09/24 09:57:24;;;;;;;5.72;1.08;;;;;;;25.23;100.00;102318.44;10436800;28;20299;-83
2023/09/24 10:02:26;;;;;;;144.00;72.73;;;;;;;26.00;86.02;102318.16;10438237;28;20040;-79
2023/09/24 10:07:26;;;;;;;4.20;1.48;;;;;;;26.58;100.00;102305.94;10423506;28;20275;-84
2023/09/24 10:12:34;;;;;;;7.00;1.80;;;;;;;27.30;76.62;102292.69;10446390;28;20037;-83
2023/09/24 10:17:37;;;;;;;5.72;1.75;;;;;;;26.80;100.00;102296.19;10429555;28;20471;-82
2023/09/24 10:22:40;;;;;;;4.10;1.25;;;;;;;26.58;64.98;102288.97;10443713;28;20037;-81
2023/09/24 10:28:00;;;;;;;4.25;1.08;;;;;;;27.39;79.81;102276.56;10443272;28;20132;-81
2023/09/24 10:33:01;;;;;;;3.08;1.58;;;;;;;26.77;60.55;102268.41;10446461;28;20037;-76
2023/09/24 10:38:02;;;;;;;2.97;0.87;;;;;;;26.43;69.88;102271.00;10442676;28;20041;-80
2023/09/24 10:43:10;;;;;;;2.38;1.05;;;;;;;26.31;69.91;102267.38;10442911;28;20124;-81
2023/09/24 10:48:11;;;;;;;2.88;1.30;;;;;;;26.15;77.16;102269.13;10442364;28;20396;-82
2023/09/24 10:53:11;;;;;;;5.73;1.87;;;;;;;26.67;54.94;102263.03;10426059;28;20041;-78
2023/09/24 10:58:15;;;;;;;3.93;1.43;;;;;;;26.41;50.83;102259.38;10442503;28;20040;-81
2023/09/24 11:03:15;;;;;;;4.03;2.33;;;;;;;26.61;51.18;102254.94;10441808;28;20068;-78
2023/09/24 11:08:17;;;;;;;3.60;1.13;;;;;;;27.26;60.41;102264.94;10444957;28;20120;-80
2023/09/24 11:13:17;;;;;;;;;;;;;;;27.26;53.29;102259.56;10442965;28;20052;-81
2023/09/24 11:18:18;;;;;;;4.35;1.13;;;;;;;27.47;50.96;102245.19;10441192;28;19927;-79
2023/09/24 11:23:19;;;;;;;3.80;1.67;;;;;;;27.21;78.39;102256.84;10445735;28;20079;-84
2023/09/24 11:28:27;;;;;;;3.87;1.70;;;;;;;26.94;60.79;102247.00;10439727;28;20480;-84
2023/09/24 11:33:28;;;;;;;4.03;1.20;;;;;;;27.30;51.98;102255.97;10442276;28;20041;-82
2023/09/24 11:38:40;;;;;;;19.03;2.03;;;;;;;27.80;53.38;102256.81;10438409;28;20148;-82
2023/09/24 11:43:41;;;;;;;86.75;83.55;;;;;;;27.41;43.58;102242.50;10431076;28;20037;-85
2023/09/24 11:48:42;;;;;;;1999.90;999.90;;;;;;;27.69;53.55;102248.78;10442732;28;20064;-83
2023/09/24 11:53:42;;;;;;;1999.90;999.90;;;;;;;27.59;48.37;102224.59;10439769;28;20071;-84
2023/09/24 11:58:43;;;;;;;1999.90;999.90;;;;;;;26.99;50.37;102231.78;10445115;28;20488;-80
2023/09/24 12:03:45;;;;;;;6.03;1.87;;;;;;;26.85;47.88;102218.31;10424478;28;20449;-83
2023/09/24 12:08:45;;;;;;;3.17;1.88;;;;;;;27.05;60.04;102210.31;10440960;28;20041;-83
2023/09/24 12:13:46;;;;;;;2.43;0.80;;;;;;;27.81;46.68;102229.00;10442899;28;20041;-83
2023/09/24 12:18:47;;;;;;;1.93;1.07;;;;;;;27.72;46.91;102218.28;10444229;28;20048;-83
2023/09/24 12:23:48;;;;;;;450.50;104.88;;;;;;;27.67;50.12;102220.09;10442030;28;20037;-79
2023/09/24 12:28:48;;;;;;;690.97;202.23;;;;;;;28.40;47.46;102215.34;10441237;28;20539;-80
2023/09/24 12:33:49;;;;;;;860.03;513.30;;;;;;;28.18;43.76;102219.03;10442004;28;20119;-83
2023/09/24 12:38:49;;;;;;;5.47;1.63;;;;;;;28.85;47.17;102211.47;10441719;28;20037;-83
2023/09/24 12:43:53;;;;;;;298.80;52.77;;;;;;;27.85;40.84;102209.28;10440951;28;20064;-83
2023/09/24 12:48:53;;;;;;;377.52;43.05;;;;;;;28.04;43.52;102211.91;10441441;28;20040;-81
2023/09/24 12:53:54;;;;;;;129.97;121.30;;;;;;;27.74;42.97;102203.03;10440894;28;20484;-80
2023/09/24 12:58:59;;;;;;;1132.57;236.27;;;;;;;27.58;44.93;102196.81;10437658;28;20131;-81
2023/09/24 13:03:59;;;;;;;1999.90;999.90;;;;;;;27.24;41.55;102195.03;10422542;28;20040;-79
2023/09/24 13:09:00;;;;;;;1999.90;999.90;;;;;;;27.51;39.92;102189.69;10437068;28;20490;-81
2023/09/24 13:14:01;;;;;;;4.28;1.33;;;;;;;27.52;38.86;102195.03;10435054;28;20045;-79
2023/09/24 13:19:01;;;;;;;4.63;1.80;;;;;;;27.65;46.14;102189.63;10440789;28;20048;-78
2023/09/24 13:24:02;;;;;;;3.00;1.30;;;;;;;28.13;42.15;102176.91;10436977;28;20496;-80
2023/09/24 13:29:04;;;;;;;22.00;8.40;;;;;;;27.33;43.67;102169.06;10439525;28;20050;-80
2023/09/24 13:34:04;;;;;;;;;;;;;;;27.25;46.03;102166.41;10435743;28;20067;-78
2023/09/24 13:39:04;;;;;;;2.87;1.43;;;;;;;27.09;44.58;102160.13;10441845;28;20287;-82
2023/09/24 13:44:05;;;;;;;3.57;1.07;;;;;;;26.86;41.46;102152.97;10447220;28;20045;-83
2023/09/24 13:49:06;;;;;;;1.87;1.03;;;;;;;27.09;44.19;102152.97;10445735;28;20161;-83
2023/09/24 13:54:08;;;;;;;2.47;1.48;;;;;;;27.14;44.98;102154.78;10422727;28;20040;-81
2023/09/24 13:59:09;;;;;;;3.20;1.60;;;;;;;26.56;42.58;102146.66;10445212;28;20396;-79
2023/09/24 14:04:09;;;;;;;52.87;4.87;;;;;;;26.87;47.38;102135.97;10447275;28;20068;-82
2023/09/24 14:14:29;;;;;;;2.25;1.27;;;;;;;26.45;44.96;102132.34;10461295;28;20032;-82
2023/09/24 14:19:29;;;;;;;348.47;61.30;;;;;;;26.50;53.13;102125.19;10405953;28;20475;-82
2023/09/24 14:24:30;;;;;;;1.63;0.80;;;;;;;26.28;47.51;102121.59;10379281;28;20037;-81
2023/09/24 14:29:31;;;;;;;1.93;1.00;;;;;;;26.02;47.95;102117.91;10404785;28;20033;-83
2023/09/24 14:34:32;;;;;;;3.28;1.75;;;;;;;26.04;53.76;102116.13;10387814;28;20088;-81
2023/09/24 14:39:32;;;;;;;2.33;1.20;;;;;;;26.07;55.31;102113.44;10402423;28;20104;-79
2023/09/24 14:44:36;;;;;;;147.27;13.37;;;;;;;26.14;54.91;102106.38;10401881;28;20751;-82
2023/09/24 14:49:36;;;;;;;256.50;38.28;;;;;;;25.99;78.05;102100.94;10387290;28;20115;-82
2023/09/24 14:54:37;;;;;;;2.83;1.53;;;;;;;25.73;59.01;102099.06;10401690;28;20127;-82
2023/09/24 14:59:37;;;;;;;2.93;1.10;;;;;;;25.67;62.83;102089.19;10418857;28;20124;-81
2023/09/24 15:04:38;;;;;;;6.10;1.60;;;;;;;25.48;91.54;102081.06;10400938;28;20045;-80
2023/09/24 15:09:39;;;;;;;2.53;1.90;;;;;;;24.99;96.14;102086.09;10404204;28;20106;-81
2023/09/24 15:14:39;;;;;;;2.20;0.80;;;;;;;24.74;79.36;102078.81;10391247;28;20148;-81
2023/09/24 15:19:40;;;;;;;3.20;1.80;;;;;;;24.25;75.40;102081.91;10403074;28;20128;-79
2023/09/24 15:24:40;;;;;;;3.40;1.17;;;;;;;23.76;89.87;102080.44;10385811;28;20057;-80
2023/09/24 15:29:41;;;;;;;2.80;1.10;;;;;;;21.69;100.00;102065.47;10417311;28;20085;-81
2023/09/24 15:34:41;;;;;;;2.60;1.57;;;;;;;20.83;100.00;102073.31;10418536;28;20116;-81
2023/09/24 15:39:42;;;;;;;6.10;1.10;;;;;;;20.15;100.00;102066.22;10416938;28;20039;-81
2023/09/24 15:44:42;;;;;;;3.97;1.00;;;;;;;19.48;100.00;102056.34;10443176;28;20397;-81
2023/09/24 15:49:43;;;;;;;2.53;0.85;;;;;;;18.91;100.00;101991.81;10438957;28;20057;-81
2023/09/24 15:54:43;;;;;;;3.05;1.35;;;;;;;18.45;100.00;101972.66;10444154;28;20496;-82
2023/09/24 15:59:44;;;;;;;4.93;1.30;;;;;;;17.91;100.00;101982.31;10423081;28;20055;-80
2023/09/24 16:04:44;;;;;;;2.00;1.10;;;;;;;17.72;100.00;101995.75;10439313;28;20419;-81
2023/09/24 16:09:45;;;;;;;2.38;0.95;;;;;;;17.11;100.00;101961.78;10438568;28;20124;-81
2023/09/24 16:14:46;;;;;;;7.17;1.23;;;;;;;16.55;100.00;101942.81;10431658;28;20492;-79
2023/09/24 16:19:46;;;;;;;3.08;1.20;;;;;;;16.13;100.00;101936.72;10440469;28;20045;-80
2023/09/24 16:24:50;;;;;;;4.10;1.60;;;;;;;15.83;100.00;101933.66;10441060;28;20485;-80
2023/09/24 16:29:51;;;;;;;6.22;2.15;;;;;;;15.50;100.00;101924.31;10440037;28;20043;-81
2023/09/24 16:34:52;;;;;;;3.33;1.20;;;;;;;15.17;100.00;101914.06;10428596;28;20029;-80
2023/09/24 16:39:52;;;;;;;4.75;2.78;;;;;;;14.90;100.00;101932.16;10440225;28;20041;-78
2023/09/24 16:44:53;;;;;;;1999.90;999.90;;;;;;;14.64;100.00;101940.59;10437594;28;20075;-79
2023/09/24 16:49:53;;;;;;;1999.90;999.90;;;;;;;14.31;100.00;101940.75;10431724;28;20040;-80
2023/09/24 16:54:55;;;;;;;1999.90;999.90;;;;;;;13.99;100.00;101940.03;10423030;28;20156;-80
2023/09/24 16:59:57;;;;;;;1999.90;999.90;;;;;;;13.75;100.00;101950.22;10432566;28;20037;-79
2023/09/24 17:05:21;;;;;;;1999.90;999.90;;;;;;;13.57;100.00;101943.16;10528190;27;20882;-81
2023/09/24 17:10:22;;;;;;;1999.90;999.90;;;;;;;13.33;100.00;101955.88;10473186;27;20045;-81
2023/09/24 17:15:26;;;;;;;1999.90;999.90;;;;;;;13.21;100.00;101950.88;10481619;28;20127;-80
2023/09/24 17:20:26;;;;;;;1999.90;999.90;;;;;;;13.01;100.00;101950.69;10509303;27;21523;-80
2023/09/24 17:25:27;;;;;;;1999.90;999.90;;;;;;;12.80;100.00;101966.16;10510298;28;20097;-79
2023/09/24 17:30:28;;;;;;;1999.90;999.90;;;;;;;12.60;100.00;101965.03;10545535;27;20499;-79
2023/09/24 17:35:28;;;;;;;1999.90;999.90;;;;;;;12.34;100.00;101962.72;10504236;27;20098;-81
2023/09/24 17:40:29;;;;;;;1999.90;999.90;;;;;;;12.22;100.00;101963.72;10469479;27;20119;-79
2023/09/24 17:45:29;;;;;;;1999.90;999.90;;;;;;;12.08;100.00;101973.41;10470802;28;20166;-79
2023/09/24 17:50:30;;;;;;;3.22;0.95;;;;;;;11.85;100.00;101971.19;10469355;27;20170;-78
2023/09/24 17:55:31;;;;;;;4.27;1.20;;;;;;;11.59;100.00;101977.47;10469971;28;20048;-81
2023/09/24 18:00:32;;;;;;;2.55;1.38;;;;;;;11.25;100.00;101989.41;10455613;28;20869;-82
2023/09/24 18:05:32;;;;;;;4.20;1.00;;;;;;;11.17;100.00;101998.50;10454276;28;20095;-81
2023/09/24 18:10:33;;;;;;;4.05;1.70;;;;;;;11.10;100.00;101994.56;10489458;27;20046;-79
2023/09/24 18:15:34;;;;;;;9.90;4.45;;;;;;;11.07;100.00;102002.22;10449542;28;20131;-79
2023/09/24 18:20:34;;;;;;;6.97;2.00;;;;;;;10.96;100.00;102006.78;10426470;28;20122;-79
2023/09/24 18:25:35;;;;;;;6.75;2.10;;;;;;;10.95;100.00;102023.31;10443644;28;20057;-80
2023/09/24 18:30:38;;;;;;;3.72;1.70;;;;;;;10.86;100.00;102013.13;10446276;28;20044;-82
2023/09/24 18:35:39;;;;;;;5.53;1.80;;;;;;;10.75;100.00;102022.00;10426677;28;20128;-81
2023/09/24 18:40:40;;;;;;;4.90;1.80;;;;;;;10.67;100.00;102025.84;10420009;28;20037;-79
2023/09/24 18:45:41;;;;;;;4.93;2.22;;;;;;;10.53;100.00;102020.59;10424182;28;20048;-76
2023/09/24 18:50:44;;;;;;;2.90;1.55;;;;;;;10.34;100.00;102014.91;10443838;28;20061;-78
2023/09/24 18:55:45;;;;;;;3.05;1.67;;;;;;;10.41;100.00;102001.47;10449151;28;20446;-81
2023/09/24 19:00:46;;;;;;;8.10;2.17;;;;;;;10.36;100.00;102008.06;10470783;28;20400;-80
2023/09/24 19:05:47;;;;;;;11.07;3.55;;;;;;;10.28;100.00;102004.94;10386651;28;20049;-80
2023/09/24 19:10:51;;;;;;;5.22;2.35;;;;;;;10.24;100.00;102006.44;10402918;28;20033;-81
2023/09/24 19:16:05;;;;;;;5.03;2.53;;;;;;;10.17;100.00;102021.63;10437669;28;20052;-79
2023/09/24 19:21:05;;;;;;;4.72;1.48;;;;;;;10.02;100.00;102006.72;10424494;28;20048;-80
2023/09/24 19:26:15;;;;;;;12.85;2.83;;;;;;;10.03;100.00;102008.53;10440579;28;20045;-77
2023/09/24 19:31:15;;;;;;;3.28;1.80;;;;;;;10.00;100.00;102013.53;10408306;28;20032;-80
2023/09/24 19:36:16;;;;;;;4.68;2.35;;;;;;;10.01;100.00;102010.13;10442544;28;20037;-79
2023/09/24 19:41:17;;;;;;;6.47;2.80;;;;;;;9.96;100.00;102007.19;10440653;28;20124;-81
2023/09/24 19:46:19;;;;;;;7.32;2.60;;;;;;;9.91;100.00;101994.59;10423388;28;20044;-80
2023/09/24 19:51:19;;;;;;;6.07;2.50;;;;;;;9.84;100.00;101995.88;10420242;28;20071;-84
2023/09/24 19:56:20;;;;;;;7.55;2.95;;;;;;;9.80;100.00;101993.84;10424560;28;20039;-84
2023/09/24 20:01:21;;;;;;;8.80;2.90;;;;;;;9.74;100.00;101990.81;10439462;28;20037;-82
2023/09/24 20:06:21;;;;;;;9.45;4.07;;;;;;;9.69;100.00;102006.19;10439151;28;20076;-81
2023/09/24 20:11:22;;;;;;;6.80;2.92;;;;;;;9.62;100.00;101998.72;10438790;28;20865;-80
2023/09/24 20:16:22;;;;;;;6.80;2.97;;;;;;;9.54;100.00;101996.50;10439720;28;20118;-80
2023/09/24 20:21:23;;;;;;;8.05;3.08;;;;;;;9.55;100.00;101989.53;10422900;28;20051;-80
2023/09/24 20:26:23;;;;;;;7.93;2.70;;;;;;;9.53;100.00;101994.69;10439464;28;20124;-80
2023/09/24 20:31:24;;;;;;;5.93;3.20;;;;;;;9.44;100.00;101985.28;10442327;28;20033;-80
2023/09/24 20:36:24;;;;;;;6.18;2.80;;;;;;;9.35;100.00;101994.28;10449313;28;20105;-80
2023/09/24 20:41:25;;;;;;;8.65;2.78;;;;;;;9.31;100.00;101988.75;10437078;28;20048;-80
2023/09/24 20:46:33;;;;;;;4.57;2.72;;;;;;;9.23;100.00;101980.34;10440344;28;20048;-81
2023/09/24 20:51:34;;;;;;;7.93;4.38;;;;;;;9.16;100.00;101970.25;10421097;28;20120;-80
2023/09/24 20:56:35;;;;;;;7.38;3.67;;;;;;;9.11;100.00;101963.00;10435348;28;20121;-80
2023/09/24 21:01:35;;;;;;;8.00;3.08;;;;;;;9.16;100.00;101959.81;10422235;28;25357;-80
2023/09/24 21:06:36;;;;;;;7.80;3.45;;;;;;;9.17;100.00;101954.72;10421629;28;20044;-79
2023/09/24 21:11:37;;;;;;;16.08;4.57;;;;;;;9.10;100.00;101953.34;10434722;28;20404;-80
2023/09/24 21:16:37;;;;;;;4.93;2.53;;;;;;;9.04;100.00;101949.41;10418232;28;20097;-79
2023/09/24 21:21:38;;;;;;;7.30;3.58;;;;;;;8.92;100.00;101952.97;10437820;28;20048;-81
2023/09/24 21:26:39;;;;;;;8.48;2.78;;;;;;;8.93;100.00;101939.13;10441178;28;20044;-80
2023/09/24 21:31:39;;;;;;;6.43;3.28;;;;;;;8.98;100.00;101939.41;10437588;28;20044;-81
2023/09/24 21:36:40;;;;;;;2.08;1.52;;;;;;;8.86;100.00;101938.53;10437231;28;20040;-81
2023/09/24 21:41:40;;;;;;;7.00;4.60;;;;;;;8.85;100.00;101939.34;10436971;28;20051;-81
2023/09/24 21:46:41;;;;;;;6.47;3.80;;;;;;;8.77;100.00;101934.47;10433955;28;20511;-80
2023/09/24 21:51:42;;;;;;;6.75;3.22;;;;;;;8.68;100.00;101930.31;10424087;28;20045;-80
2023/09/24 21:56:42;;;;;;;10.07;3.92;;;;;;;8.63;100.00;101933.50;10446612;28;21005;-80
2023/09/24 22:01:43;;;;;;;17.95;4.40;;;;;;;8.68;100.00;101912.94;10446785;28;20044;-80
2023/09/24 22:06:43;;;;;;;12.27;3.88;;;;;;;8.78;100.00;101922.34;10443277;28;20526;-81
2023/09/24 22:11:44;;;;;;;7.30;3.65;;;;;;;8.71;100.00;101917.47;10440112;28;20399;-81
2023/09/24 22:16:45;;;;;;;11.25;6.05;;;;;;;8.78;100.00;101915.41;10443449;28;20048;-81
2023/09/24 22:21:45;;;;;;;5.45;3.20;;;;;;;8.81;100.00;101918.25;10441513;28;20400;-81
2023/09/24 22:26:46;;;;;;;7.55;3.92;;;;;;;8.69;100.00;101909.53;10422470;28;20049;-80
2023/09/24 22:31:47;;;;;;;9.23;4.35;;;;;;;8.75;100.00;101909.06;10426887;28;20057;-81
2023/09/24 22:36:47;;;;;;;7.45;3.60;;;;;;;8.70;100.00;101897.41;10442425;28;20138;-81
2023/09/24 22:41:50;;;;;;;9.70;4.13;;;;;;;8.65;100.00;101902.28;10441966;28;20051;-81
2023/09/24 22:46:50;;;;;;;;;;;;;;;8.66;100.00;101896.25;10441827;28;20044;-81
2023/09/24 22:51:50;;;;;;;7.00;3.85;;;;;;;8.61;100.00;101902.84;10440308;28;19924;-81